createdAt,value
2023-04-17T00:00:38.603Z,11.13
2023-04-17T00:01:38.627Z,11.19
2023-04-17T00:02:38.760Z,11.28
2023-04-17T00:03:38.741Z,11.25
2023-04-17T00:04:38.763Z,11.29
2023-04-17T00:05:38.590Z,11.43
2023-04-17T00:06:38.579Z,11.38
2023-04-17T00:07:38.696Z,11.61
2023-04-17T00:08:38.570Z,11.41
2023-04-17T00:09:38.600Z,11.36
2023-04-17T00:10:38.560Z,11.56
2023-04-17T00:11:38.561Z,11.61
2023-04-17T00:12:38.634Z,11.56
2023-04-17T00:13:38.546Z,11.68
2023-04-17T00:14:38.545Z,11.77
2023-04-17T00:15:38.562Z,11.80
2023-04-17T00:16:38.665Z,11.85
2023-04-17T00:17:38.572Z,11.77
2023-04-17T00:18:38.531Z,11.78
2023-04-17T00:19:38.551Z,11.71
2023-04-17T00:20:38.494Z,11.78
2023-04-17T00:21:38.473Z,11.82
2023-04-17T00:22:38.489Z,11.90
2023-04-17T00:23:38.477Z,12.06
2023-04-17T00:24:38.490Z,12.12
2023-04-17T00:25:38.498Z,12.16
2023-04-17T00:26:38.461Z,12.08
2023-04-17T00:27:38.470Z,12.09
2023-04-17T00:28:38.461Z,12.26
2023-04-17T00:29:38.431Z,12.29
2023-04-17T00:30:38.413Z,12.26
2023-04-17T00:31:38.488Z,12.30
2023-04-17T00:32:38.453Z,12.37
2023-04-17T00:33:38.421Z,12.29
2023-04-17T00:34:38.453Z,12.06
2023-04-17T00:35:38.394Z,12.04
2023-04-17T00:36:38.430Z,12.15
2023-04-17T00:37:38.407Z,12.34
2023-04-17T00:38:38.400Z,12.21
2023-04-17T00:39:38.385Z,12.19
2023-04-17T00:40:38.372Z,12.23
2023-04-17T00:41:38.356Z,12.16
2023-04-17T00:42:38.375Z,12.23
2023-04-17T00:43:38.410Z,12.16
2023-04-17T00:44:38.348Z,12.20
2023-04-17T00:45:38.436Z,12.19
2023-04-17T00:46:38.357Z,12.19
2023-04-17T00:47:38.366Z,12.21
2023-04-17T00:48:38.373Z,12.01
2023-04-17T00:49:38.309Z,11.75
2023-04-17T00:50:38.334Z,11.67
2023-04-17T00:51:38.351Z,11.65
2023-04-17T00:52:38.313Z,11.62
2023-04-17T00:53:38.295Z,11.72
2023-04-17T00:54:38.281Z,11.82
2023-04-17T00:55:38.295Z,11.80
2023-04-17T00:56:38.315Z,11.68
2023-04-17T00:57:38.333Z,11.83
2023-04-17T00:58:38.299Z,11.97
2023-04-17T00:59:38.268Z,12.04
2023-04-17T01:00:38.244Z,12.02
2023-04-17T01:01:38.411Z,11.82
2023-04-17T01:02:39.338Z,11.80
2023-04-17T01:03:38.374Z,11.86
2023-04-17T01:04:38.273Z,11.82
2023-04-17T01:05:38.243Z,11.97
2023-04-17T01:06:38.207Z,11.89
2023-04-17T01:07:38.213Z,11.94
2023-04-17T01:08:38.263Z,12.05
2023-04-17T01:09:38.228Z,12.04
2023-04-17T01:10:38.184Z,11.93
2023-04-17T01:11:38.193Z,12.05
2023-04-17T01:12:38.213Z,11.96
2023-04-17T01:13:38.187Z,11.96
2023-04-17T01:14:38.169Z,12.04
2023-04-17T01:15:38.158Z,12.20
2023-04-17T01:16:38.184Z,12.24
2023-04-17T01:17:38.144Z,12.27
2023-04-17T01:18:38.141Z,12.29
2023-04-17T01:19:38.133Z,12.27
2023-04-17T01:20:38.192Z,12.38
2023-04-17T01:21:38.124Z,12.41
2023-04-17T01:22:38.117Z,12.38
2023-04-17T01:23:38.110Z,12.42
2023-04-17T01:24:38.127Z,12.42
2023-04-17T01:25:38.118Z,12.41
2023-04-17T01:26:38.074Z,12.34
2023-04-17T01:27:38.084Z,12.27
2023-04-17T01:28:38.086Z,12.26
2023-04-17T01:29:38.088Z,12.02
2023-04-17T01:30:38.090Z,12.01
2023-04-17T01:31:38.051Z,12.04
2023-04-17T01:32:38.075Z,12.09
2023-04-17T01:33:38.049Z,12.15
2023-04-17T01:34:38.056Z,12.15
2023-04-17T01:35:38.060Z,12.27
2023-04-17T01:36:38.050Z,12.29
2023-04-17T01:37:38.033Z,12.19
2023-04-17T01:38:38.038Z,12.30
2023-04-17T01:39:38.017Z,12.30
2023-04-17T01:40:38.022Z,12.06
2023-04-17T01:41:38.077Z,12.16
2023-04-17T01:42:37.992Z,12.08
2023-04-17T01:43:38.003Z,12.09
2023-04-17T01:44:38.028Z,12.20
2023-04-17T01:45:37.995Z,12.08
2023-04-17T01:46:38.051Z,12.12
2023-04-17T01:47:38.072Z,11.97
2023-04-17T01:48:37.977Z,11.87
2023-04-17T01:49:38.033Z,11.86
2023-04-17T01:50:38.039Z,12.05
2023-04-17T01:51:37.966Z,11.97
2023-04-17T01:52:37.951Z,11.93
2023-04-17T01:53:37.945Z,11.90
2023-04-17T01:54:37.937Z,11.93
2023-04-17T01:55:37.926Z,11.94
2023-04-17T01:56:37.955Z,12.05
2023-04-17T01:57:37.954Z,12.11
2023-04-17T01:58:37.916Z,11.94
2023-04-17T01:59:37.909Z,11.87
2023-04-17T02:00:37.907Z,11.93
2023-04-17T02:01:37.961Z,11.77
2023-04-17T02:02:38.061Z,11.87
2023-04-17T02:03:38.025Z,12.06
2023-04-17T02:04:37.947Z,12.08
2023-04-17T02:05:37.886Z,12.09
2023-04-17T02:06:37.887Z,12.20
2023-04-17T02:07:37.859Z,12.26
2023-04-17T02:08:37.861Z,12.20
2023-04-17T02:09:37.842Z,12.16
2023-04-17T02:10:37.857Z,12.21
2023-04-17T02:11:37.882Z,12.20
2023-04-17T02:12:37.848Z,12.30
2023-04-17T02:13:37.845Z,12.33
2023-04-17T02:14:37.819Z,12.19
2023-04-17T02:15:37.885Z,12.06
2023-04-17T02:16:37.843Z,12.23
2023-04-17T02:17:37.860Z,12.30
2023-04-17T02:18:37.799Z,12.30
2023-04-17T02:19:37.809Z,12.41
2023-04-17T02:20:37.799Z,12.45
2023-04-17T02:21:37.780Z,12.41
2023-04-17T02:22:37.774Z,12.45
2023-04-17T02:23:37.790Z,12.15
2023-04-17T02:24:37.794Z,12.26
2023-04-17T02:25:37.757Z,12.21
2023-04-17T02:26:37.789Z,12.26
2023-04-17T02:27:37.746Z,12.38
2023-04-17T02:28:37.728Z,12.39
2023-04-17T02:29:37.755Z,12.41
2023-04-17T02:30:37.765Z,12.45
2023-04-17T02:31:37.778Z,12.31
2023-04-17T02:32:37.767Z,12.15
2023-04-17T02:33:37.724Z,12.06
2023-04-17T02:34:37.728Z,12.26
2023-04-17T02:35:37.745Z,12.30
2023-04-17T02:36:37.714Z,12.29
2023-04-17T02:37:37.702Z,12.26
2023-04-17T02:38:37.673Z,12.34
2023-04-17T02:39:37.676Z,12.33
2023-04-17T02:40:37.668Z,12.29
2023-04-17T02:41:37.694Z,12.19
2023-04-17T02:42:37.649Z,12.21
2023-04-17T02:43:37.725Z,12.23
2023-04-17T02:44:37.674Z,11.70
2023-04-17T02:45:37.656Z,11.68
2023-04-17T02:46:37.728Z,11.85
2023-04-17T02:47:37.704Z,11.52
2023-04-17T02:48:37.629Z,11.61
2023-04-17T02:49:37.630Z,11.67
2023-04-17T02:50:37.616Z,11.57
2023-04-17T02:51:37.641Z,11.34
2023-04-17T02:52:37.618Z,11.41
2023-04-17T02:53:37.600Z,11.28
2023-04-17T02:54:37.607Z,11.31
2023-04-17T02:55:37.610Z,11.20
2023-04-17T02:56:37.598Z,11.21
2023-04-17T02:57:37.566Z,11.13
2023-04-17T02:58:37.583Z,11.07
2023-04-17T02:59:37.567Z,11.24
2023-04-17T03:00:37.621Z,11.25
2023-04-17T03:01:37.550Z,11.24
2023-04-17T03:02:37.801Z,11.16
2023-04-17T03:03:37.746Z,11.16
2023-04-17T03:04:37.534Z,10.94
2023-04-17T03:05:37.588Z,11.10
2023-04-17T03:06:37.523Z,11.11
2023-04-17T03:07:37.527Z,11.09
2023-04-17T03:08:37.511Z,11.11
2023-04-17T03:09:37.518Z,11.02
2023-04-17T03:10:37.515Z,10.86
2023-04-17T03:11:37.488Z,11.11
2023-04-17T03:12:37.537Z,11.24
2023-04-17T03:13:37.609Z,11.19
2023-04-17T03:14:37.475Z,11.11
2023-04-17T03:15:37.503Z,11.28
2023-04-17T03:16:37.568Z,11.10
2023-04-17T03:17:37.497Z,11.28
2023-04-17T03:18:38.453Z,11.41
2023-04-17T03:19:37.473Z,11.38
2023-04-17T03:20:37.476Z,11.31
2023-04-17T03:21:37.481Z,11.20
2023-04-17T03:22:37.469Z,11.19
2023-04-17T03:23:37.501Z,11.10
2023-04-17T03:24:37.442Z,11.06
2023-04-17T03:25:37.433Z,11.27
2023-04-17T03:26:37.433Z,11.11
2023-04-17T03:27:37.410Z,11.11
2023-04-17T03:28:38.412Z,11.20
2023-04-17T03:29:37.411Z,11.35
2023-04-17T03:30:37.384Z,11.43
2023-04-17T03:31:37.413Z,11.28
2023-04-17T03:32:37.408Z,11.29
2023-04-17T03:33:38.422Z,11.21
2023-04-17T03:34:37.396Z,11.14
2023-04-17T03:35:37.354Z,11.27
2023-04-17T03:36:37.376Z,11.19
2023-04-17T03:37:37.445Z,11.17
2023-04-17T03:38:37.401Z,11.28
2023-04-17T03:39:37.339Z,11.34
2023-04-17T03:40:37.321Z,11.34
2023-04-17T03:41:37.340Z,11.38
2023-04-17T03:42:37.328Z,11.61
2023-04-17T03:43:37.333Z,11.36
2023-04-17T03:44:37.304Z,11.50
2023-04-17T03:45:37.385Z,11.44
2023-04-17T03:46:37.285Z,11.31
2023-04-17T03:47:37.322Z,11.28
2023-04-17T03:48:37.276Z,11.35
2023-04-17T03:49:37.288Z,11.28
2023-04-17T03:50:37.269Z,11.32
2023-04-17T03:51:37.280Z,11.21
2023-04-17T03:52:37.280Z,11.25
2023-04-17T03:53:37.269Z,11.44
2023-04-17T03:54:37.284Z,11.32
2023-04-17T03:55:37.238Z,11.28
2023-04-17T03:56:37.240Z,11.21
2023-04-17T03:57:38.233Z,11.43
2023-04-17T03:58:37.214Z,11.35
2023-04-17T03:59:37.219Z,11.29
2023-04-17T04:00:37.206Z,11.29
2023-04-17T04:01:37.194Z,11.32
2023-04-17T04:02:37.409Z,11.35
2023-04-17T04:03:37.423Z,11.34
2023-04-17T04:04:37.285Z,11.29
2023-04-17T04:05:37.178Z,11.27
2023-04-17T04:06:37.172Z,11.19
2023-04-17T04:07:37.212Z,11.09
2023-04-17T04:08:37.205Z,11.02
2023-04-17T04:09:37.160Z,11.24
2023-04-17T04:10:37.154Z,11.28
2023-04-17T04:11:37.169Z,11.29
2023-04-17T04:12:37.142Z,11.25
2023-04-17T04:13:37.112Z,11.16
2023-04-17T04:14:38.195Z,11.27
2023-04-17T04:15:37.202Z,11.16
2023-04-17T04:16:37.188Z,11.31
2023-04-17T04:17:37.100Z,11.35
2023-04-17T04:18:37.120Z,11.49
2023-04-17T04:19:37.091Z,11.56
2023-04-17T04:20:38.605Z,11.62
2023-04-17T04:21:37.074Z,11.59
2023-04-17T04:22:37.052Z,11.50
2023-04-17T04:23:37.056Z,11.74
2023-04-17T04:24:37.076Z,11.80
2023-04-17T04:25:37.054Z,11.65
2023-04-17T04:26:37.035Z,11.67
2023-04-17T04:27:37.022Z,11.62
2023-04-17T04:28:38.094Z,11.46
2023-04-17T04:29:37.038Z,11.44
2023-04-17T04:30:37.036Z,11.16
2023-04-17T04:31:37.054Z,11.25
2023-04-17T04:32:37.013Z,11.09
2023-04-17T04:33:37.041Z,11.09
2023-04-17T04:34:37.238Z,11.11
2023-04-17T04:35:38.324Z,10.99
2023-04-17T04:36:36.981Z,11.11
2023-04-17T04:37:36.976Z,11.03
2023-04-17T04:38:36.971Z,10.88
2023-04-17T04:39:36.966Z,11.03
2023-04-17T04:40:36.975Z,10.89
2023-04-17T04:41:36.937Z,11.13
2023-04-17T04:42:36.948Z,11.19
2023-04-17T04:43:36.948Z,11.14
2023-04-17T04:44:36.956Z,10.99
2023-04-17T04:45:36.962Z,10.94
2023-04-17T04:46:36.986Z,10.86
2023-04-17T04:47:36.951Z,10.92
2023-04-17T04:48:36.935Z,10.88
2023-04-17T04:49:36.940Z,10.91
2023-04-17T04:50:37.035Z,10.88
2023-04-17T04:51:36.888Z,10.95
2023-04-17T04:52:36.878Z,10.84
2023-04-17T04:53:47.915Z,10.83
2023-04-17T04:54:36.932Z,10.96
2023-04-17T04:55:36.917Z,10.96
2023-04-17T04:56:36.924Z,11.03
2023-04-17T04:57:36.840Z,11.09
2023-04-17T04:58:36.893Z,10.95
2023-04-17T04:59:38.863Z,11.01
2023-04-17T05:00:37.914Z,10.94
2023-04-17T05:01:36.906Z,10.95
2023-04-17T05:02:37.118Z,10.80
2023-04-17T05:03:36.995Z,10.94
2023-04-17T05:04:36.966Z,10.94
2023-04-17T05:05:36.824Z,11.03
2023-04-17T05:06:36.853Z,11.11
2023-04-17T05:07:37.413Z,11.28
2023-04-17T05:08:36.818Z,11.34
2023-04-17T05:09:36.876Z,11.38
2023-04-17T05:10:36.828Z,11.07
2023-04-17T05:11:37.424Z,11.25
2023-04-17T05:12:36.791Z,11.11
2023-04-17T05:13:36.786Z,11.13
2023-04-17T05:14:36.802Z,11.24
2023-04-17T05:15:36.800Z,11.16
2023-04-17T05:16:36.857Z,11.17
2023-04-17T05:17:36.763Z,11.13
2023-04-17T05:18:36.763Z,11.06
2023-04-17T05:19:36.929Z,11.11
2023-04-17T05:20:37.457Z,11.16
2023-04-17T05:21:36.774Z,11.01
2023-04-17T05:22:36.699Z,11.20
2023-04-17T05:23:36.713Z,11.20
2023-04-17T05:24:36.690Z,11.03
2023-04-17T05:25:36.739Z,11.21
2023-04-17T05:26:36.737Z,11.29
2023-04-17T05:27:36.726Z,11.35
2023-04-17T05:28:36.687Z,11.35
2023-04-17T05:29:36.695Z,11.43
2023-04-17T05:30:36.708Z,11.38
2023-04-17T05:31:36.791Z,11.21
2023-04-17T05:32:36.714Z,11.25
2023-04-17T05:33:36.663Z,11.35
2023-04-17T05:35:11.306Z,11.70
2023-04-17T05:35:36.680Z,11.46
2023-04-17T05:37:11.114Z,11.50
2023-04-17T05:38:10.098Z,11.44
2023-04-17T05:39:10.316Z,11.59
2023-04-17T05:40:09.069Z,11.56
2023-04-17T05:40:36.611Z,11.39
2023-04-17T05:42:10.252Z,11.31
2023-04-17T05:43:11.206Z,11.34
2023-04-17T05:44:09.998Z,11.24
2023-04-17T05:44:36.607Z,11.28
2023-04-17T05:45:36.665Z,11.20
2023-04-17T05:46:36.601Z,11.17
2023-04-17T05:47:36.634Z,11.25
2023-04-17T05:48:36.569Z,11.19
2023-04-17T05:49:36.593Z,11.10
2023-04-17T05:50:37.094Z,11.11
2023-04-17T05:51:36.599Z,11.20
2023-04-17T05:52:39.192Z,11.39
2023-04-17T05:53:36.578Z,11.28
2023-04-17T05:54:36.553Z,11.39
2023-04-17T05:55:36.583Z,11.39
2023-04-17T05:56:36.529Z,11.28
2023-04-17T05:57:36.513Z,11.29
2023-04-17T05:58:36.572Z,11.67
2023-04-17T05:59:36.577Z,11.52
2023-04-17T06:00:36.566Z,11.82
2023-04-17T06:01:36.504Z,11.70
2023-04-17T06:02:36.629Z,11.61
2023-04-17T06:03:36.712Z,11.78
2023-04-17T06:04:36.749Z,11.87
2023-04-17T06:05:36.625Z,11.78
2023-04-17T06:06:36.478Z,11.97
2023-04-17T06:07:36.457Z,11.99
2023-04-17T06:08:36.459Z,12.04
2023-04-17T06:09:36.439Z,12.44
2023-04-17T06:10:36.482Z,12.56
2023-04-17T06:11:36.420Z,12.79
2023-04-17T06:12:36.473Z,12.97
2023-04-17T06:13:36.437Z,13.11
2023-04-17T06:14:36.481Z,13.51
2023-04-17T06:15:36.407Z,13.62
2023-04-17T06:16:36.492Z,13.18
2023-04-17T06:17:36.460Z,13.12
2023-04-17T06:18:36.409Z,12.52
2023-04-17T06:19:36.420Z,12.85
2023-04-17T06:20:38.650Z,12.31
2023-04-17T06:21:36.365Z,12.29
2023-04-17T06:22:36.349Z,12.06
2023-04-17T06:23:36.354Z,11.90
2023-04-17T06:24:36.364Z,11.82
2023-04-17T06:25:36.378Z,11.78
2023-04-17T06:26:36.335Z,11.62
2023-04-17T06:27:37.214Z,11.82
2023-04-17T06:28:37.316Z,11.65
2023-04-17T06:29:36.316Z,11.52
2023-04-17T06:30:36.381Z,11.46
2023-04-17T06:31:36.386Z,11.64
2023-04-17T06:32:36.403Z,11.85
2023-04-17T06:33:36.290Z,12.09
2023-04-17T06:34:41.338Z,12.29
2023-04-17T06:35:37.270Z,12.30
2023-04-17T06:36:36.393Z,12.44
2023-04-17T06:37:36.241Z,12.05
2023-04-17T06:38:36.276Z,11.82
2023-04-17T06:39:36.256Z,11.83
2023-04-17T06:40:36.279Z,11.85
2023-04-17T06:41:36.252Z,12.05
2023-04-17T06:42:36.220Z,12.31
2023-04-17T06:43:36.210Z,12.26
2023-04-17T06:44:36.248Z,12.48
2023-04-17T06:45:36.201Z,12.62
2023-04-17T06:46:36.244Z,12.05
2023-04-17T06:47:36.278Z,12.06
2023-04-17T06:48:36.192Z,11.94
2023-04-17T06:49:36.202Z,11.90
2023-04-17T06:50:36.164Z,12.01
2023-04-17T06:51:36.176Z,11.86
2023-04-17T06:52:36.166Z,11.72
2023-04-17T06:53:36.158Z,11.65
2023-04-17T06:54:36.152Z,11.65
2023-04-17T06:55:36.139Z,11.78
2023-04-17T06:56:36.147Z,11.80
2023-04-17T06:57:36.168Z,11.97
2023-04-17T06:58:36.133Z,11.94
2023-04-17T06:59:36.091Z,12.13
2023-04-17T07:00:36.076Z,12.34
2023-04-17T07:01:36.132Z,12.21
2023-04-17T07:02:36.324Z,11.85
2023-04-17T07:03:36.770Z,11.93
2023-04-17T07:04:36.121Z,11.80
2023-04-17T07:05:36.084Z,12.04
2023-04-17T07:06:36.076Z,12.06
2023-04-17T07:07:36.085Z,11.90
2023-04-17T07:08:36.035Z,12.06
2023-04-17T07:09:36.039Z,12.12
2023-04-17T07:10:36.038Z,12.27
2023-04-17T07:11:36.012Z,11.83
2023-04-17T07:12:36.034Z,11.67
2023-04-17T07:13:36.018Z,11.96
2023-04-17T07:14:35.992Z,11.80
2023-04-17T07:15:36.040Z,11.96
2023-04-17T07:16:36.081Z,11.97
2023-04-17T07:17:36.036Z,11.93
2023-04-17T07:18:35.983Z,12.23
2023-04-17T07:19:35.974Z,12.70
2023-04-17T07:20:35.937Z,12.62
2023-04-17T07:21:35.928Z,12.38
2023-04-17T07:22:35.926Z,12.62
2023-04-17T07:23:36.040Z,12.46
2023-04-17T07:24:35.921Z,12.77
2023-04-17T07:25:35.924Z,12.85
2023-04-17T07:26:35.895Z,13.00
2023-04-17T07:27:35.887Z,13.37
2023-04-17T07:28:35.881Z,13.70
2023-04-17T07:29:35.919Z,13.71
2023-04-17T07:30:35.871Z,13.62
2023-04-17T07:31:35.881Z,13.18
2023-04-17T07:32:35.889Z,12.54
2023-04-17T07:33:38.121Z,12.19
2023-04-17T07:34:35.872Z,12.48
2023-04-17T07:35:35.836Z,12.67
2023-04-17T07:36:35.844Z,12.60
2023-04-17T07:37:35.829Z,12.81
2023-04-17T07:38:35.802Z,12.29
2023-04-17T07:39:35.851Z,12.31
2023-04-17T07:40:35.809Z,12.16
2023-04-17T07:41:35.829Z,12.44
2023-04-17T07:42:35.784Z,12.81
2023-04-17T07:43:35.801Z,13.11
2023-04-17T07:44:35.800Z,13.07
2023-04-17T07:45:35.814Z,12.84
2023-04-17T07:46:36.662Z,12.84
2023-04-17T07:47:35.779Z,13.69
2023-04-17T07:48:35.759Z,13.58
2023-04-17T07:49:35.765Z,13.51
2023-04-17T07:50:35.767Z,13.09
2023-04-17T07:51:35.739Z,12.93
2023-04-17T07:52:35.731Z,12.66
2023-04-17T07:53:35.729Z,13.11
2023-04-17T07:54:35.721Z,13.67
2023-04-17T07:55:35.704Z,14.21
2023-04-17T07:56:35.706Z,14.25
2023-04-17T07:57:35.681Z,13.70
2023-04-17T07:58:35.697Z,13.79
2023-04-17T07:59:35.691Z,13.95
2023-04-17T08:00:35.673Z,14.71
2023-04-17T08:01:35.693Z,14.57
2023-04-17T08:02:35.793Z,14.80
2023-04-17T08:03:35.916Z,14.78
2023-04-17T08:04:35.714Z,14.53
2023-04-17T08:05:35.667Z,14.24
2023-04-17T08:06:35.645Z,14.12
2023-04-17T08:07:35.610Z,13.41
2023-04-17T08:08:35.648Z,13.58
2023-04-17T08:09:35.661Z,14.38
2023-04-17T08:10:35.612Z,14.21
2023-04-17T08:11:42.645Z,14.44
2023-04-17T08:12:37.602Z,14.12
2023-04-17T08:13:35.629Z,13.91
2023-04-17T08:14:35.598Z,14.21
2023-04-17T08:15:36.882Z,14.19
2023-04-17T08:16:35.627Z,14.43
2023-04-17T08:17:35.750Z,13.41
2023-04-17T08:18:35.558Z,13.33
2023-04-17T08:19:35.552Z,13.55
2023-04-17T08:20:35.592Z,13.40
2023-04-17T08:21:35.574Z,13.32
2023-04-17T08:22:35.537Z,13.22
2023-04-17T08:23:35.519Z,13.73
2023-04-17T08:24:35.541Z,13.87
2023-04-17T08:25:35.518Z,14.43
2023-04-17T08:26:35.508Z,16.15
2023-04-17T08:27:35.529Z,16.44
2023-04-17T08:28:35.508Z,16.40
2023-04-17T08:29:35.492Z,16.38
2023-04-17T08:30:35.604Z,16.27
2023-04-17T08:31:35.465Z,16.03
2023-04-17T08:32:35.566Z,16.04
2023-04-17T08:33:35.516Z,16.18
2023-04-17T08:34:35.465Z,15.85
2023-04-17T08:35:35.485Z,15.63
2023-04-17T08:36:35.438Z,15.94
2023-04-17T08:37:35.514Z,15.86
2023-04-17T08:38:35.447Z,16.60
2023-04-17T08:39:35.576Z,16.95
2023-04-17T08:40:35.526Z,16.80
2023-04-17T08:41:35.424Z,17.26
2023-04-17T08:42:35.420Z,17.30
2023-04-17T08:43:35.414Z,16.93
2023-04-17T08:44:35.398Z,16.20
2023-04-17T08:45:35.385Z,16.14
2023-04-17T08:46:35.785Z,16.93
2023-04-17T08:47:35.483Z,16.75
2023-04-17T08:48:35.380Z,17.23
2023-04-17T08:49:35.434Z,17.47
2023-04-17T08:50:35.434Z,18.54
2023-04-17T08:51:37.052Z,18.09
2023-04-17T08:52:35.331Z,19.91
2023-04-17T08:53:35.367Z,20.81
2023-04-17T08:54:35.343Z,21.76
2023-04-17T08:55:35.303Z,21.59
2023-04-17T08:56:35.345Z,21.83
2023-04-17T08:57:35.356Z,20.46
2023-04-17T08:58:35.333Z,20.65
2023-04-17T08:59:35.312Z,20.23
2023-04-17T09:00:35.308Z,20.20
2023-04-17T09:01:35.401Z,19.90
2023-04-17T09:02:35.487Z,19.86
2023-04-17T09:03:35.313Z,20.38
2023-04-17T09:04:35.390Z,21.14
2023-04-17T09:05:35.484Z,21.81
2023-04-17T09:06:35.269Z,21.41
2023-04-17T09:07:35.239Z,21.27
2023-04-17T09:08:35.497Z,22.23
2023-04-17T09:09:35.281Z,22.93
2023-04-17T09:10:35.223Z,21.98
2023-04-17T09:11:36.801Z,20.58
2023-04-17T09:12:35.201Z,20.77
2023-04-17T09:13:35.196Z,21.81
2023-04-17T09:14:35.190Z,21.56
2023-04-17T09:15:35.287Z,22.16
2023-04-17T09:16:35.268Z,22.64
2023-04-17T09:17:35.245Z,24.24
2023-04-17T09:18:35.190Z,23.83
2023-04-17T09:19:35.418Z,23.02
2023-04-17T09:20:36.158Z,22.34
2023-04-17T09:21:35.178Z,22.43
2023-04-17T09:22:35.159Z,22.94
2023-04-17T09:23:35.148Z,22.99
2023-04-17T09:24:35.162Z,22.09
2023-04-17T09:25:35.128Z,20.99
2023-04-17T09:26:35.114Z,20.61
2023-04-17T09:27:35.142Z,21.05
2023-04-17T09:28:35.133Z,21.91
2023-04-17T09:29:35.096Z,21.27
2023-04-17T09:30:35.091Z,20.84
2023-04-17T09:31:35.107Z,21.21
2023-04-17T09:32:35.110Z,21.38
2023-04-17T09:33:35.076Z,21.08
2023-04-17T09:34:35.053Z,20.15
2023-04-17T09:35:39.241Z,20.53
2023-04-17T09:36:35.044Z,21.53
2023-04-17T09:37:35.087Z,20.54
2023-04-17T09:38:35.086Z,20.93
2023-04-17T09:39:35.041Z,21.38
2023-04-17T09:40:35.028Z,20.81
2023-04-17T09:41:35.043Z,21.14
2023-04-17T09:42:35.023Z,21.48
2023-04-17T09:43:35.018Z,22.10
2023-04-17T09:44:35.030Z,22.59
2023-04-17T09:45:35.004Z,22.31
2023-04-17T09:46:35.052Z,21.85
2023-04-17T09:47:35.026Z,21.16
2023-04-17T09:48:35.050Z,20.62
2023-04-17T09:49:35.032Z,21.35
2023-04-17T09:50:36.455Z,21.59
2023-04-17T09:51:35.028Z,21.26
2023-04-17T09:52:34.956Z,21.66
2023-04-17T09:53:35.039Z,21.24
2023-04-17T09:54:34.931Z,21.27
2023-04-17T09:55:34.942Z,21.91
2023-04-17T09:56:34.939Z,21.67
2023-04-17T09:57:34.923Z,22.09
2023-04-17T09:58:34.923Z,21.60
2023-04-17T09:59:34.948Z,22.23
2023-04-17T10:00:34.898Z,23.04
2023-04-17T10:01:34.930Z,23.15
2023-04-17T10:02:35.077Z,23.58
2023-04-17T10:03:37.362Z,24.01
2023-04-17T10:04:35.899Z,24.17
2023-04-17T10:05:34.869Z,23.72
2023-04-17T10:06:34.883Z,22.67
2023-04-17T10:07:35.904Z,21.66
2023-04-17T10:08:34.896Z,21.04
2023-04-17T10:09:34.872Z,21.04
2023-04-17T10:10:34.928Z,20.41
2023-04-17T10:11:34.853Z,19.60
2023-04-17T10:12:35.081Z,19.50
2023-04-17T10:13:35.802Z,19.84
2023-04-17T10:14:34.865Z,19.90
2023-04-17T10:15:34.847Z,20.12
2023-04-17T10:16:34.868Z,20.58
2023-04-17T10:17:34.953Z,21.09
2023-04-17T10:18:35.793Z,20.30
2023-04-17T10:19:34.770Z,20.23
2023-04-17T10:20:34.764Z,20.02
2023-04-17T10:21:34.772Z,19.80
2023-04-17T10:22:34.813Z,19.91
2023-04-17T10:23:34.816Z,20.23
2023-04-17T10:24:34.738Z,19.79
2023-04-17T10:25:34.744Z,19.69
2023-04-17T10:26:34.735Z,18.84
2023-04-17T10:27:34.737Z,18.31
2023-04-17T10:28:34.728Z,19.43
2023-04-17T10:29:34.720Z,20.00
2023-04-17T10:30:34.720Z,20.05
2023-04-17T10:31:34.718Z,20.72
2023-04-17T10:32:34.760Z,20.89
2023-04-17T10:33:34.691Z,20.87
2023-04-17T10:34:34.682Z,21.27
2023-04-17T10:35:34.720Z,21.85
2023-04-17T10:36:34.679Z,21.97
2023-04-17T10:37:34.666Z,21.20
2023-04-17T10:38:34.676Z,21.54
2023-04-17T10:39:34.650Z,21.23
2023-04-17T10:40:34.745Z,21.90
2023-04-17T10:41:34.641Z,20.03
2023-04-17T10:42:34.622Z,21.46
2023-04-17T10:43:34.617Z,21.59
2023-04-17T10:44:34.624Z,21.90
2023-04-17T10:45:34.789Z,22.93
2023-04-17T10:46:34.622Z,22.90
2023-04-17T10:47:34.640Z,22.60
2023-04-17T10:48:35.725Z,21.20
2023-04-17T10:49:34.572Z,19.70
2023-04-17T10:50:34.704Z,20.47
2023-04-17T10:51:34.593Z,21.91
2023-04-17T10:52:34.587Z,21.85
2023-04-17T10:53:34.627Z,20.91
2023-04-17T10:54:34.592Z,21.91
2023-04-17T10:55:34.571Z,21.72
2023-04-17T10:56:34.534Z,20.47
2023-04-17T10:57:34.537Z,20.15
2023-04-17T10:58:34.524Z,19.46
2023-04-17T10:59:34.552Z,18.97
2023-04-17T11:00:34.523Z,19.87
2023-04-17T11:01:34.532Z,18.29
2023-04-17T11:02:34.625Z,19.25
2023-04-17T11:03:34.537Z,20.42
2023-04-17T11:04:34.696Z,21.42
2023-04-17T11:05:34.497Z,21.95
2023-04-17T11:06:34.471Z,23.02
2023-04-17T11:07:35.140Z,23.65
2023-04-17T11:08:34.450Z,23.47
2023-04-17T11:09:34.460Z,22.25
2023-04-17T11:10:34.496Z,21.11
2023-04-17T11:11:43.552Z,20.64
2023-04-17T11:12:36.583Z,20.72
2023-04-17T11:13:34.446Z,20.33
2023-04-17T11:14:34.422Z,19.60
2023-04-17T11:15:34.453Z,19.15
2023-04-17T11:16:34.500Z,19.84
2023-04-17T11:17:34.410Z,18.73
2023-04-17T11:18:34.421Z,18.59
2023-04-17T11:19:34.386Z,19.91
2023-04-17T11:20:34.381Z,21.60
2023-04-17T11:21:34.429Z,22.67
2023-04-17T11:22:34.386Z,22.96
2023-04-17T11:23:34.375Z,23.86
2023-04-17T11:24:34.346Z,23.14
2023-04-17T11:25:34.931Z,22.89
2023-04-17T11:26:34.463Z,22.29
2023-04-17T11:27:34.349Z,22.87
2023-04-17T11:28:34.477Z,23.68
2023-04-17T11:29:34.335Z,23.85
2023-04-17T11:30:34.316Z,23.14
2023-04-17T11:31:34.379Z,22.96
2023-04-17T11:32:34.575Z,21.78
2023-04-17T11:33:34.304Z,21.50
2023-04-17T11:34:34.373Z,22.12
2023-04-17T11:35:34.297Z,22.52
2023-04-17T11:36:34.283Z,22.37
2023-04-17T11:37:34.286Z,22.71
2023-04-17T11:38:34.303Z,24.19
2023-04-17T11:39:34.306Z,23.08
2023-04-17T11:40:34.267Z,22.44
2023-04-17T11:41:34.314Z,22.60
2023-04-17T11:42:34.273Z,22.78
2023-04-17T11:43:34.292Z,22.97
2023-04-17T11:44:34.320Z,23.87
2023-04-17T11:45:34.259Z,24.20
2023-04-17T11:46:34.492Z,23.32
2023-04-17T11:47:34.509Z,21.44
2023-04-17T11:48:34.260Z,21.66
2023-04-17T11:49:34.325Z,22.67
2023-04-17T11:50:34.214Z,22.93
2023-04-17T11:51:34.214Z,22.99
2023-04-17T11:52:34.224Z,23.83
2023-04-17T11:53:34.212Z,23.11
2023-04-17T11:54:34.246Z,24.04
2023-04-17T11:55:34.198Z,23.50
2023-04-17T11:56:34.294Z,21.42
2023-04-17T11:57:34.199Z,20.62
2023-04-17T11:58:34.234Z,21.48
2023-04-17T11:59:34.489Z,21.71
2023-04-17T12:00:34.197Z,21.53
2023-04-17T12:01:34.162Z,23.14
2023-04-17T12:02:35.360Z,23.80
2023-04-17T12:03:34.352Z,23.64
2023-04-17T12:04:34.820Z,23.35
2023-04-17T12:05:34.196Z,23.53
2023-04-17T12:06:34.141Z,23.57
2023-04-17T12:07:34.133Z,21.97
2023-04-17T12:08:34.359Z,20.89
2023-04-17T12:09:34.138Z,21.19
2023-04-17T12:10:34.156Z,21.05
2023-04-17T12:11:34.150Z,22.01
2023-04-17T12:12:34.116Z,22.17
2023-04-17T12:13:34.096Z,22.92
2023-04-17T12:14:34.477Z,22.77
2023-04-17T12:15:34.101Z,22.84
2023-04-17T12:16:34.188Z,22.12
2023-04-17T12:17:34.167Z,21.91
2023-04-17T12:18:34.139Z,21.46
2023-04-17T12:19:34.081Z,21.54
2023-04-17T12:20:34.107Z,21.76
2023-04-17T12:21:34.085Z,21.16
2023-04-17T12:22:34.055Z,20.65
2023-04-17T12:23:34.072Z,20.81
2023-04-17T12:24:34.085Z,21.61
2023-04-17T12:25:34.084Z,22.25
2023-04-17T12:26:34.090Z,22.65
2023-04-17T12:27:34.056Z,22.97
2023-04-17T12:28:34.042Z,21.27
2023-04-17T12:29:43.886Z,20.34
2023-04-17T12:30:36.103Z,19.83
2023-04-17T12:31:34.102Z,20.43
2023-04-17T12:32:34.083Z,21.48
2023-04-17T12:33:33.987Z,21.75
2023-04-17T12:34:34.076Z,20.87
2023-04-17T12:35:33.998Z,20.71
2023-04-17T12:36:34.029Z,20.30
2023-04-17T12:37:33.978Z,20.64
2023-04-17T12:38:34.719Z,21.01
2023-04-17T12:39:34.746Z,21.66
2023-04-17T12:40:33.950Z,21.16
2023-04-17T12:41:33.966Z,21.51
2023-04-17T12:42:42.725Z,21.60
2023-04-17T12:43:35.994Z,21.45
2023-04-17T12:44:33.991Z,21.90
2023-04-17T12:45:33.939Z,22.75
2023-04-17T12:46:33.971Z,22.65
2023-04-17T12:47:33.947Z,23.14
2023-04-17T12:48:33.949Z,23.15
2023-04-17T12:49:33.918Z,22.60
2023-04-17T12:50:33.908Z,21.54
2023-04-17T12:51:33.877Z,21.78
2023-04-17T12:52:33.958Z,22.23